createdAt,value
2019-03-04T00:01:47.855Z,978.76
2019-03-04T00:03:48.073Z,978.29
2019-03-04T00:05:47.879Z,978.68
2019-03-04T00:07:47.790Z,978.98
2019-03-04T00:09:47.596Z,978.40
2019-03-04T00:11:47.570Z,978.65
2019-03-04T00:13:47.607Z,978.16
2019-03-04T00:15:48.038Z,978.42
2019-03-04T00:17:47.821Z,978.84
2019-03-04T00:19:47.649Z,978.75
2019-03-04T00:21:47.765Z,978.41
2019-03-04T00:23:47.883Z,978.23
2019-03-04T00:25:47.901Z,978.53
2019-03-04T00:27:48.006Z,978.20
2019-03-04T00:29:48.026Z,978.35
2019-03-04T00:31:47.625Z,978.16
2019-03-04T00:33:47.840Z,978.51
2019-03-04T00:35:47.642Z,978.33
2019-03-04T00:37:47.963Z,978.46
2019-03-04T00:39:47.515Z,978.40
2019-03-04T00:41:47.778Z,978.42
2019-03-04T00:43:47.793Z,977.98
2019-03-04T00:45:48.012Z,978.32
2019-03-04T00:47:47.815Z,978.41
2019-03-04T00:49:47.622Z,978.23
2019-03-04T00:51:47.861Z,978.43
2019-03-04T00:53:48.020Z,978.09
2019-03-04T00:55:47.808Z,977.97
2019-03-04T00:57:47.628Z,978.00
2019-03-04T00:59:47.861Z,978.17
2019-03-04T01:01:47.849Z,977.93
2019-03-04T01:03:47.677Z,977.70
2019-03-04T01:05:48.224Z,977.81
2019-03-04T01:07:47.974Z,977.91
2019-03-04T01:09:48.263Z,978.07
2019-03-04T01:11:47.721Z,977.84
2019-03-04T01:13:47.757Z,978.28
2019-03-04T01:15:47.781Z,978.29
2019-03-04T01:17:48.396Z,978.01
2019-03-04T01:19:47.994Z,977.80
2019-03-04T01:21:47.809Z,977.69
2019-03-04T01:23:47.828Z,977.83
2019-03-04T01:25:47.610Z,977.61
2019-03-04T01:27:47.651Z,977.73
2019-03-04T01:29:47.645Z,977.83
2019-03-04T01:31:47.833Z,977.64
2019-03-04T01:33:48.162Z,977.72
2019-03-04T01:35:47.997Z,977.74
2019-03-04T01:37:48.007Z,977.51
2019-03-04T01:39:47.758Z,977.41
2019-03-04T01:41:48.022Z,977.25
2019-03-04T01:43:47.598Z,976.91
2019-03-04T01:45:47.842Z,977.29
2019-03-04T01:47:47.854Z,977.06
2019-03-04T01:49:48.085Z,977.08
2019-03-04T01:51:47.779Z,977.11
2019-03-04T01:53:47.994Z,977.07
2019-03-04T01:55:48.039Z,977.01
2019-03-04T01:57:48.078Z,976.88
2019-03-04T01:59:47.926Z,976.89
2019-03-04T02:01:47.934Z,977.29
2019-03-04T02:03:47.721Z,976.97
2019-03-04T02:05:47.927Z,976.61
2019-03-04T02:07:48.174Z,976.91
2019-03-04T02:09:48.189Z,976.81
2019-03-04T02:11:48.151Z,977.11
2019-03-04T02:13:48.162Z,976.90
2019-03-04T02:15:48.226Z,976.48
2019-03-04T02:17:48.414Z,976.69
2019-03-04T02:19:47.948Z,976.67
2019-03-04T02:21:47.952Z,976.81
2019-03-04T02:23:48.273Z,976.52
2019-03-04T02:25:48.001Z,976.53
2019-03-04T02:27:47.789Z,976.42
2019-03-04T02:29:47.757Z,976.74
2019-03-04T02:31:48.092Z,976.52
2019-03-04T02:33:48.233Z,976.55
2019-03-04T02:35:48.233Z,976.39
2019-03-04T02:37:48.041Z,976.13
2019-03-04T02:39:48.060Z,976.41
2019-03-04T02:41:48.277Z,976.01
2019-03-04T02:43:48.187Z,975.94
2019-03-04T02:45:47.789Z,976.34
2019-03-04T02:47:47.633Z,976.30
2019-03-04T02:49:47.707Z,976.15
2019-03-04T02:51:48.288Z,976.11
2019-03-04T02:53:47.846Z,976.25
2019-03-04T02:55:48.096Z,976.13
2019-03-04T02:57:47.960Z,976.14
2019-03-04T02:59:47.888Z,976.07
2019-03-04T03:01:47.987Z,976.13
2019-03-04T03:03:47.991Z,976.06
2019-03-04T03:05:48.002Z,975.97
2019-03-04T03:07:47.752Z,975.68
2019-03-04T03:09:48.026Z,975.66
2019-03-04T03:11:48.045Z,975.64
2019-03-04T03:13:48.163Z,975.39
2019-03-04T03:15:48.065Z,975.77
2019-03-04T03:17:47.967Z,975.40
2019-03-04T03:19:48.091Z,975.35
2019-03-04T03:21:47.832Z,975.38
2019-03-04T03:23:48.220Z,975.68
2019-03-04T03:25:47.947Z,975.59
2019-03-04T03:27:47.886Z,975.64
2019-03-04T03:29:48.161Z,975.29
2019-03-04T03:31:47.846Z,975.10
2019-03-04T03:33:47.968Z,975.31
2019-03-04T03:35:47.717Z,975.33
2019-03-04T03:37:47.831Z,974.91
2019-03-04T03:39:47.898Z,975.14
2019-03-04T03:41:48.018Z,975.03
2019-03-04T03:43:48.025Z,974.86
2019-03-04T03:45:48.036Z,974.86
2019-03-04T03:47:47.985Z,974.89
2019-03-04T03:49:48.176Z,974.95
2019-03-04T03:51:48.072Z,975.08
2019-03-04T03:53:47.737Z,975.20
2019-03-04T03:55:47.790Z,974.99
2019-03-04T03:57:47.888Z,975.47
2019-03-04T03:59:48.015Z,975.04
2019-03-04T04:01:47.823Z,975.31
2019-03-04T04:03:48.144Z,974.91
2019-03-04T04:05:48.358Z,974.84
2019-03-04T04:07:48.379Z,974.96
2019-03-04T04:09:48.172Z,974.86
2019-03-04T04:11:48.191Z,975.15
2019-03-04T04:13:47.743Z,974.97
2019-03-04T04:15:48.009Z,974.69
2019-03-04T04:17:48.176Z,975.05
2019-03-04T04:19:47.819Z,974.91
2019-03-04T04:21:48.039Z,974.73
2019-03-04T04:23:48.195Z,974.52
2019-03-04T04:25:48.027Z,974.65
2019-03-04T04:27:48.293Z,974.73
2019-03-04T04:29:47.891Z,974.63
2019-03-04T04:31:48.102Z,974.66
2019-03-04T04:33:48.097Z,974.57
2019-03-04T04:35:48.025Z,974.28
2019-03-04T04:37:47.772Z,974.57
2019-03-04T04:39:48.247Z,974.69
2019-03-04T04:41:48.060Z,974.47
2019-03-04T04:43:47.816Z,974.41
2019-03-04T04:45:48.298Z,974.11
2019-03-04T04:47:47.794Z,974.17
2019-03-04T04:49:48.201Z,974.67
2019-03-04T04:51:48.222Z,974.38
2019-03-04T04:53:48.436Z,974.40
2019-03-04T04:55:48.248Z,974.55
2019-03-04T04:57:47.816Z,974.27
2019-03-04T04:59:48.361Z,974.38
2019-03-04T05:01:47.917Z,974.41
2019-03-04T05:03:47.980Z,974.15
2019-03-04T05:05:48.351Z,974.07
2019-03-04T05:07:47.998Z,973.72
2019-03-04T05:09:48.221Z,973.37
2019-03-04T05:11:48.128Z,973.78
2019-03-04T05:13:48.147Z,973.61
2019-03-04T05:15:48.157Z,973.77
2019-03-04T05:17:48.370Z,973.43
2019-03-04T05:19:47.973Z,973.38
2019-03-04T05:21:48.197Z,973.67
2019-03-04T05:23:48.202Z,973.06
2019-03-04T05:25:48.211Z,972.92
2019-03-04T05:27:47.970Z,973.10
2019-03-04T05:29:48.032Z,973.03
2019-03-04T05:31:47.890Z,973.31
2019-03-04T05:33:48.333Z,972.90
2019-03-04T05:35:48.149Z,972.96
2019-03-04T05:37:48.376Z,972.73
2019-03-04T05:39:48.109Z,972.22
2019-03-04T05:41:48.115Z,972.41
2019-03-04T05:43:48.217Z,972.54
2019-03-04T05:45:48.220Z,971.87
2019-03-04T05:47:48.545Z,972.37
2019-03-04T05:49:47.938Z,972.45
2019-03-04T05:51:48.095Z,972.16
2019-03-04T05:53:48.165Z,972.23
2019-03-04T05:55:48.125Z,972.26
2019-03-04T05:57:48.202Z,972.68
2019-03-04T05:59:48.212Z,972.01
2019-03-04T06:01:48.217Z,972.54
2019-03-04T06:03:48.332Z,972.49
2019-03-04T06:05:48.049Z,972.84
2019-03-04T06:07:48.136Z,972.73
2019-03-04T06:09:48.156Z,972.54
2019-03-04T06:11:48.173Z,972.34
2019-03-04T06:13:48.104Z,972.70
2019-03-04T06:15:48.411Z,972.11
2019-03-04T06:17:48.103Z,972.45
2019-03-04T06:19:48.328Z,972.44
2019-03-04T06:21:47.846Z,972.43
2019-03-04T06:23:48.081Z,972.48
2019-03-04T06:25:47.955Z,972.67
2019-03-04T06:27:48.371Z,972.15
2019-03-04T06:29:47.975Z,972.34
2019-03-04T06:31:48.155Z,972.31
2019-03-04T06:33:48.417Z,972.05
2019-03-04T06:35:48.320Z,972.22
2019-03-04T06:37:48.279Z,971.99
2019-03-04T06:39:48.148Z,971.92
2019-03-04T06:41:48.598Z,971.94
2019-03-04T06:43:48.358Z,972.09
2019-03-04T06:45:47.979Z,972.09
2019-03-04T06:47:48.130Z,971.84
2019-03-04T06:49:48.190Z,972.07
2019-03-04T06:51:47.960Z,971.77
2019-03-04T06:53:48.223Z,971.46
2019-03-04T06:55:48.544Z,971.36
2019-03-04T06:57:48.341Z,971.96
2019-03-04T06:59:48.347Z,971.43
2019-03-04T07:01:48.363Z,971.12
2019-03-04T07:03:48.554Z,971.09
2019-03-04T07:05:47.976Z,970.56
2019-03-04T07:07:48.196Z,970.51
2019-03-04T07:09:48.201Z,970.35
2019-03-04T07:11:48.030Z,970.96
2019-03-04T07:13:47.977Z,970.97
2019-03-04T07:15:48.241Z,971.42
2019-03-04T07:17:48.518Z,971.48
2019-03-04T07:19:48.242Z,971.25
2019-03-04T07:21:48.217Z,970.10
2019-03-04T07:23:48.185Z,970.79
2019-03-04T07:25:48.226Z,970.72
2019-03-04T07:27:48.312Z,970.70
2019-03-04T07:29:48.328Z,970.96
2019-03-04T07:31:48.330Z,970.58
2019-03-04T07:33:48.445Z,970.73
2019-03-04T07:35:48.460Z,970.96
2019-03-04T07:37:48.260Z,970.87
2019-03-04T07:39:48.234Z,970.75
2019-03-04T07:41:48.901Z,970.39
2019-03-04T07:43:48.710Z,971.16
2019-03-04T07:45:48.484Z,970.48
2019-03-04T07:47:48.203Z,970.76
2019-03-04T07:49:47.971Z,970.63
2019-03-04T07:51:48.168Z,970.64
2019-03-04T07:53:48.011Z,970.31
2019-03-04T07:55:48.273Z,969.99
2019-03-04T07:57:48.232Z,970.19
2019-03-04T07:59:48.039Z,970.52
2019-03-04T08:01:48.078Z,970.43
2019-03-04T08:03:48.080Z,970.62
2019-03-04T08:05:48.332Z,970.68
2019-03-04T08:07:48.070Z,970.38
2019-03-04T08:09:48.146Z,970.45
2019-03-04T08:11:48.263Z,970.78
2019-03-04T08:13:48.476Z,970.68
2019-03-04T08:15:48.487Z,970.71
2019-03-04T08:17:48.203Z,970.60
2019-03-04T08:19:48.100Z,970.80
2019-03-04T08:21:48.216Z,970.78
2019-03-04T08:23:48.330Z,970.53
2019-03-04T08:25:48.350Z,970.78
2019-03-04T08:27:48.348Z,970.46
2019-03-04T08:29:48.360Z,970.65
2019-03-04T08:31:48.259Z,970.61
2019-03-04T08:33:48.123Z,970.94
2019-03-04T08:35:48.399Z,970.58
2019-03-04T08:37:48.138Z,970.98
2019-03-04T08:39:48.628Z,971.08
2019-03-04T08:41:48.945Z,971.07
2019-03-04T08:43:48.343Z,971.11
2019-03-04T08:45:48.363Z,971.54
2019-03-04T08:47:48.172Z,971.11
2019-03-04T08:49:48.134Z,971.37
2019-03-04T08:51:48.385Z,971.25
2019-03-04T08:53:48.293Z,970.96
2019-03-04T08:55:48.200Z,971.01
2019-03-04T08:57:48.321Z,971.77
2019-03-04T08:59:48.342Z,971.21
2019-03-04T09:01:48.301Z,971.57
2019-03-04T09:03:48.114Z,971.33
2019-03-04T09:05:48.374Z,971.91
2019-03-04T09:07:48.252Z,971.93
2019-03-04T09:09:48.394Z,971.91
2019-03-04T09:11:48.272Z,972.16
2019-03-04T09:13:48.301Z,971.79
2019-03-04T09:15:48.360Z,971.94
2019-03-04T09:17:48.336Z,972.09
2019-03-04T09:19:48.098Z,972.53
2019-03-04T09:21:48.361Z,971.92
2019-03-04T09:23:49.966Z,972.16
2019-03-04T09:25:48.585Z,972.22
2019-03-04T09:27:48.379Z,972.09
2019-03-04T09:29:48.296Z,972.10
2019-03-04T09:31:48.396Z,971.99
2019-03-04T09:33:48.393Z,972.20
2019-03-04T09:35:48.332Z,971.98
2019-03-04T09:37:48.558Z,972.18
2019-03-04T09:39:48.355Z,971.96
2019-03-04T09:41:48.164Z,972.07
2019-03-04T09:43:48.117Z,972.32
2019-03-04T09:45:48.709Z,972.15
2019-03-04T09:47:48.711Z,972.13
2019-03-04T09:49:48.298Z,972.31
2019-03-04T09:51:48.535Z,972.22
2019-03-04T09:53:48.686Z,971.83
2019-03-04T09:55:48.353Z,971.69
2019-03-04T09:57:48.356Z,971.96
2019-03-04T09:59:48.306Z,971.76
2019-03-04T10:01:48.185Z,971.71
2019-03-04T10:03:48.403Z,971.90
2019-03-04T10:05:48.423Z,971.65
2019-03-04T10:07:48.214Z,971.76
2019-03-04T10:09:48.740Z,971.58
2019-03-04T10:11:48.371Z,971.98
2019-03-04T10:13:48.587Z,971.35
2019-03-04T10:15:48.478Z,971.44
2019-03-04T10:17:48.579Z,971.75
2019-03-04T10:19:48.600Z,971.81
2019-03-04T10:21:50.015Z,971.43
2019-03-04T10:23:48.613Z,971.51
2019-03-04T10:25:48.317Z,971.77
2019-03-04T10:27:48.640Z,971.60
2019-03-04T10:29:48.440Z,971.57
2019-03-04T10:31:48.299Z,971.54
2019-03-04T10:33:48.471Z,971.41
2019-03-04T10:35:48.481Z,971.74
2019-03-04T10:37:48.605Z,971.38
2019-03-04T10:39:48.964Z,971.55
2019-03-04T10:41:48.972Z,971.68
2019-03-04T10:43:48.422Z,971.49
2019-03-04T10:45:48.414Z,971.53
2019-03-04T10:47:48.320Z,971.52
2019-03-04T10:49:48.824Z,971.27
2019-03-04T10:51:48.578Z,971.34
2019-03-04T10:53:48.545Z,971.43
2019-03-04T10:55:48.595Z,971.30
2019-03-04T10:57:48.518Z,971.76
2019-03-04T10:59:48.335Z,971.54
2019-03-04T11:01:50.090Z,971.84
2019-03-04T11:03:48.518Z,971.53
2019-03-04T11:05:48.870Z,971.85
2019-03-04T11:07:48.570Z,971.81
2019-03-04T11:09:48.407Z,971.57
2019-03-04T11:11:48.408Z,971.61
2019-03-04T11:13:48.705Z,971.48
2019-03-04T11:15:48.509Z,971.65
2019-03-04T11:17:48.433Z,971.88
2019-03-04T11:19:48.537Z,971.78
2019-03-04T11:21:48.342Z,972.06
2019-03-04T11:23:48.506Z,971.85
2019-03-04T11:25:48.893Z,971.77
2019-03-04T11:27:48.586Z,971.90
2019-03-04T11:29:48.465Z,971.59
2019-03-04T11:31:48.293Z,971.41
2019-03-04T11:33:48.615Z,971.41
2019-03-04T11:35:48.626Z,971.70
2019-03-04T11:37:48.645Z,971.68
2019-03-04T11:39:48.346Z,971.50
2019-03-04T11:41:48.502Z,971.66
2019-03-04T11:43:48.678Z,971.53
2019-03-04T11:45:48.484Z,971.55
2019-03-04T11:47:48.592Z,971.59
2019-03-04T11:49:48.344Z,971.48
2019-03-04T11:51:48.425Z,971.70
2019-03-04T11:53:48.533Z,971.31
2019-03-04T11:55:48.334Z,971.55
2019-03-04T11:57:48.636Z,971.44
2019-03-04T11:59:48.585Z,971.39
2019-03-04T12:01:48.782Z,971.16
2019-03-04T12:03:48.590Z,971.28
2019-03-04T12:05:48.600Z,971.55
2019-03-04T12:07:48.549Z,971.22
2019-03-04T12:09:48.588Z,971.25
2019-03-04T12:11:48.839Z,971.05
2019-03-04T12:13:48.535Z,971.39
2019-03-04T12:15:48.756Z,971.33
2019-03-04T12:17:48.565Z,971.27
2019-03-04T12:19:48.678Z,971.33
2019-03-04T12:21:48.585Z,971.03
2019-03-04T12:23:48.503Z,971.14
2019-03-04T12:25:48.508Z,971.00
2019-03-04T12:27:48.687Z,971.12
2019-03-04T12:29:48.735Z,971.48
2019-03-04T12:31:48.441Z,971.58
2019-03-04T12:33:49.290Z,971.23
2019-03-04T12:35:48.671Z,971.01
2019-03-04T12:37:48.585Z,971.35
2019-03-04T12:39:48.772Z,971.05
2019-03-04T12:41:49.781Z,971.09
2019-03-04T12:43:48.639Z,971.44
2019-03-04T12:45:49.243Z,971.39
2019-03-04T12:47:48.637Z,970.96
2019-03-04T12:49:48.654Z,971.09
2019-03-04T12:51:48.667Z,971.15
2019-03-04T12:53:48.786Z,970.70
2019-03-04T12:55:48.682Z,971.28
2019-03-04T12:57:48.635Z,970.94
2019-03-04T12:59:48.437Z,971.14
2019-03-04T13:01:48.616Z,971.41
2019-03-04T13:03:48.731Z,970.82
2019-03-04T13:05:48.739Z,971.10
2019-03-04T13:07:48.563Z,971.07
2019-03-04T13:09:48.743Z,971.58
2019-03-04T13:11:49.214Z,971.67
2019-03-04T13:13:48.996Z,971.55
2019-03-04T13:15:48.777Z,972.01
2019-03-04T13:17:48.407Z,971.58
2019-03-04T13:19:48.625Z,971.81
2019-03-04T13:21:48.841Z,971.95
2019-03-04T13:23:48.496Z,971.87
2019-03-04T13:25:48.562Z,971.93
2019-03-04T13:27:48.565Z,972.19
2019-03-04T13:29:48.697Z,971.79
2019-03-04T13:31:48.533Z,971.83
2019-03-04T13:33:48.807Z,971.71
2019-03-04T13:35:48.765Z,971.61
2019-03-04T13:37:48.831Z,971.73
2019-03-04T13:39:48.632Z,971.79
2019-03-04T13:41:48.711Z,971.88
2019-03-04T13:43:48.973Z,971.91
2019-03-04T13:45:48.767Z,971.58
2019-03-04T13:47:48.479Z,971.72
2019-03-04T13:49:48.601Z,971.80
2019-03-04T13:51:48.615Z,971.70
2019-03-04T13:53:48.515Z,971.65
2019-03-04T13:55:48.623Z,971.73
2019-03-04T13:57:48.850Z,972.05
2019-03-04T13:59:48.853Z,972.36
2019-03-04T14:01:48.668Z,972.47
2019-03-04T14:03:48.652Z,972.44
2019-03-04T14:05:48.713Z,972.33
2019-03-04T14:07:48.793Z,972.64
2019-03-04T14:09:48.761Z,972.49
2019-03-04T14:11:48.778Z,972.61
2019-03-04T14:13:48.732Z,972.32
2019-03-04T14:15:48.745Z,972.54
2019-03-04T14:17:48.766Z,972.20
2019-03-04T14:19:48.982Z,971.94
2019-03-04T14:21:48.570Z,972.28
2019-03-04T14:23:48.718Z,972.43
2019-03-04T14:25:49.845Z,972.14
2019-03-04T14:27:48.813Z,972.37
2019-03-04T14:29:49.029Z,972.25
2019-03-04T14:31:48.846Z,972.03
2019-03-04T14:33:48.860Z,971.86
2019-03-04T14:35:48.862Z,972.09
2019-03-04T14:37:48.874Z,972.07
2019-03-04T14:39:48.610Z,971.96
2019-03-04T14:41:49.844Z,971.79
2019-03-04T14:43:48.703Z,972.23
2019-03-04T14:45:48.709Z,972.29
2019-03-04T14:47:48.930Z,972.43
2019-03-04T14:49:48.579Z,972.85
2019-03-04T14:51:48.741Z,972.64
2019-03-04T14:53:48.699Z,972.97
2019-03-04T14:55:48.699Z,973.08
2019-03-04T14:57:48.722Z,973.61
2019-03-04T14:59:48.795Z,973.87
2019-03-04T15:01:49.321Z,973.91
2019-03-04T15:03:48.898Z,973.93
2019-03-04T15:05:48.940Z,974.21
2019-03-04T15:07:48.954Z,974.04
2019-03-04T15:09:49.532Z,973.99
2019-03-04T15:11:48.618Z,974.37
2019-03-04T15:13:48.873Z,974.23
2019-03-04T15:15:48.652Z,974.28
2019-03-04T15:17:48.730Z,973.71
2019-03-04T15:19:48.916Z,974.21
2019-03-04T15:21:49.266Z,973.80
2019-03-04T15:23:49.149Z,974.23
2019-03-04T15:25:49.153Z,973.87
2019-03-04T15:27:49.166Z,974.07
2019-03-04T15:29:48.843Z,974.07
2019-03-04T15:31:48.826Z,974.08
2019-03-04T15:33:48.765Z,973.53
2019-03-04T15:35:48.804Z,973.95
2019-03-04T15:37:49.174Z,973.95
2019-03-04T15:39:48.762Z,974.11
2019-03-04T15:41:50.337Z,974.10
2019-03-04T15:43:49.040Z,974.16
2019-03-04T15:45:49.069Z,974.35
2019-03-04T15:47:48.838Z,974.80
2019-03-04T15:49:48.881Z,974.14
2019-03-04T15:51:49.096Z,974.61
2019-03-04T15:53:48.737Z,974.61
2019-03-04T15:55:48.923Z,974.80
2019-03-04T15:57:51.013Z,974.70
2019-03-04T15:59:49.014Z,974.80
2019-03-04T16:01:49.282Z,975.00
2019-03-04T16:03:48.717Z,975.03
2019-03-04T16:05:49.397Z,975.01
2019-03-04T16:07:49.311Z,975.02
2019-03-04T16:09:49.002Z,975.12
2019-03-04T16:11:48.563Z,975.38
2019-03-04T16:13:53.363Z,975.15
2019-03-04T16:15:48.854Z,975.37
2019-03-04T16:17:49.356Z,975.05
2019-03-04T16:19:49.062Z,975.25
2019-03-04T16:21:48.807Z,975.49
2019-03-04T16:23:48.991Z,975.51
2019-03-04T16:25:48.891Z,975.38
2019-03-04T16:27:49.007Z,975.59
2019-03-04T16:29:51.441Z,975.46
2019-03-04T16:31:48.825Z,975.86
2019-03-04T16:33:48.836Z,975.83
2019-03-04T16:35:48.647Z,975.33
2019-03-04T16:37:48.986Z,975.62
2019-03-04T16:39:49.595Z,975.62
2019-03-04T16:41:49.096Z,975.93
2019-03-04T16:43:48.978Z,975.96
2019-03-04T16:45:52.079Z,976.06
2019-03-04T16:47:50.030Z,975.91
2019-03-04T16:49:48.990Z,976.11
2019-03-04T16:51:50.100Z,976.26
2019-03-04T16:53:48.894Z,976.36
2019-03-04T16:55:49.176Z,976.29
2019-03-04T16:57:49.103Z,976.31
2019-03-04T16:59:50.393Z,976.37
2019-03-04T17:01:48.983Z,976.62
2019-03-04T17:03:48.972Z,976.61
2019-03-04T17:05:49.226Z,976.46
2019-03-04T17:07:50.808Z,976.51
2019-03-04T17:09:49.037Z,976.49
2019-03-04T17:11:49.159Z,976.42
2019-03-04T17:13:48.743Z,976.80
2019-03-04T17:15:48.852Z,976.77
2019-03-04T17:17:48.889Z,976.99
2019-03-04T17:19:51.974Z,976.88
2019-03-04T17:21:49.115Z,976.97
2019-03-04T17:23:49.331Z,976.93
2019-03-04T17:25:48.896Z,977.33
2019-03-04T17:27:48.993Z,977.17
2019-03-04T17:29:51.517Z,977.13
2019-03-04T17:31:48.874Z,977.36
2019-03-04T17:33:49.502Z,977.66
2019-03-04T17:35:48.993Z,977.18
2019-03-04T17:37:51.604Z,977.33
2019-03-04T17:39:49.387Z,977.28
2019-03-04T17:41:48.921Z,977.71
2019-03-04T17:43:49.248Z,977.39
2019-03-04T17:45:49.054Z,977.40
2019-03-04T17:47:48.652Z,977.49
2019-03-04T17:49:51.881Z,977.53
2019-03-04T17:51:49.291Z,977.73
2019-03-04T17:53:51.702Z,977.58
2019-03-04T17:55:49.104Z,977.58
2019-03-04T17:57:49.339Z,977.76
2019-03-04T17:59:49.113Z,977.72
2019-03-04T18:01:49.349Z,977.73
2019-03-04T18:03:49.357Z,977.68
2019-03-04T18:05:49.162Z,977.90
2019-03-04T18:07:48.966Z,977.82
2019-03-04T18:09:49.198Z,978.16
2019-03-04T18:11:49.781Z,977.95
2019-03-04T18:13:49.130Z,977.92
2019-03-04T18:15:49.212Z,978.23
2019-03-04T18:17:49.248Z,978.07
2019-03-04T18:19:49.158Z,978.05
2019-03-04T18:21:49.159Z,978.27
2019-03-04T18:23:49.273Z,977.91
2019-03-04T18:25:49.070Z,978.24
2019-03-04T18:27:49.183Z,978.26
2019-03-04T18:29:49.203Z,978.28
2019-03-04T18:31:49.167Z,978.27
2019-03-04T18:33:49.024Z,978.19
2019-03-04T18:35:49.179Z,978.44
2019-03-04T18:37:49.101Z,978.41
2019-03-04T18:39:49.258Z,978.47
2019-03-04T18:41:49.586Z,978.58
2019-03-04T18:43:49.286Z,978.26
2019-03-04T18:45:49.705Z,978.65
2019-03-04T18:47:49.311Z,978.71
2019-03-04T18:49:49.116Z,978.58
2019-03-04T18:51:49.535Z,978.61
2019-03-04T18:53:49.276Z,978.60
2019-03-04T18:55:49.259Z,978.74
2019-03-04T18:57:50.844Z,978.65
2019-03-04T18:59:49.221Z,978.68
2019-03-04T19:01:49.706Z,978.89
2019-03-04T19:03:49.199Z,978.84
2019-03-04T19:05:49.484Z,979.17
2019-03-04T19:07:49.112Z,979.08
2019-03-04T19:09:49.134Z,979.05
2019-03-04T19:11:49.340Z,978.98
2019-03-04T19:13:49.155Z,979.15
2019-03-04T19:15:49.366Z,979.50
2019-03-04T19:17:49.384Z,979.29
2019-03-04T19:19:49.192Z,979.20
2019-03-04T19:21:49.407Z,979.12
2019-03-04T19:23:49.213Z,979.05
2019-03-04T19:25:49.426Z,979.43
2019-03-04T19:27:49.352Z,979.11
2019-03-04T19:29:49.320Z,979.16
2019-03-04T19:31:49.461Z,979.14
2019-03-04T19:33:49.397Z,979.19
2019-03-04T19:35:50.098Z,978.97
2019-03-04T19:37:49.192Z,979.33
2019-03-04T19:39:49.443Z,979.20
2019-03-04T19:41:50.328Z,979.42
2019-03-04T19:43:49.127Z,979.47
2019-03-04T19:45:49.343Z,979.44
2019-03-04T19:47:49.350Z,979.63
2019-03-04T19:49:49.277Z,979.94
2019-03-04T19:51:49.171Z,979.65
2019-03-04T19:53:49.483Z,979.67
2019-03-04T19:55:49.196Z,979.81
2019-03-04T19:57:49.208Z,979.72
2019-03-04T19:59:49.414Z,980.06
2019-03-04T20:01:49.333Z,979.67
2019-03-04T20:03:49.356Z,979.86
2019-03-04T20:05:50.257Z,979.58
2019-03-04T20:07:49.258Z,979.80
2019-03-04T20:09:49.375Z,979.80
2019-03-04T20:11:50.614Z,979.94
2019-03-04T20:13:49.395Z,979.50
2019-03-04T20:15:49.414Z,979.93
2019-03-04T20:17:49.425Z,979.61
2019-03-04T20:19:49.231Z,979.97
2019-03-04T20:21:49.655Z,979.79
2019-03-04T20:23:49.216Z,979.78
2019-03-04T20:25:49.261Z,979.88
2019-03-04T20:27:49.479Z,979.62
2019-03-04T20:29:49.491Z,979.80
2019-03-04T20:31:49.514Z,979.70
2019-03-04T20:33:49.305Z,979.60
2019-03-04T20:35:49.533Z,980.01
2019-03-04T20:37:49.440Z,979.76
2019-03-04T20:39:49.443Z,979.60
2019-03-04T20:41:49.695Z,979.83
2019-03-04T20:43:49.381Z,979.60
2019-03-04T20:45:49.282Z,979.96
2019-03-04T20:47:51.170Z,980.02
2019-03-04T20:49:49.519Z,979.56
2019-03-04T20:51:49.270Z,979.97
2019-03-04T20:53:49.376Z,979.84
2019-03-04T20:55:49.333Z,979.83
2019-03-04T20:57:48.949Z,979.58
2019-03-04T20:59:49.065Z,979.71
2019-03-04T21:01:49.368Z,979.58
2019-03-04T21:03:48.938Z,980.14
2019-03-04T21:05:49.190Z,979.82
2019-03-04T21:07:49.612Z,979.73
2019-03-04T21:09:49.175Z,980.01
2019-03-04T21:11:48.921Z,979.87
2019-03-04T21:13:49.197Z,979.45
2019-03-04T21:15:49.219Z,979.59
2019-03-04T21:17:49.265Z,979.55
2019-03-04T21:19:48.969Z,980.02
2019-03-04T21:21:49.299Z,979.54
2019-03-04T21:23:49.398Z,979.88
2019-03-04T21:25:49.204Z,979.81
2019-03-04T21:27:49.006Z,979.84
2019-03-04T21:29:49.032Z,979.70
2019-03-04T21:31:49.139Z,979.68
2019-03-04T21:33:49.250Z,979.52
2019-03-04T21:35:49.195Z,979.54
2019-03-04T21:37:49.001Z,980.25
2019-03-04T21:39:48.990Z,980.04
2019-03-04T21:41:49.221Z,980.06
2019-03-04T21:43:49.211Z,979.69
2019-03-04T21:45:49.205Z,979.84
2019-03-04T21:47:49.229Z,979.79
2019-03-04T21:49:48.947Z,979.87
2019-03-04T21:51:49.031Z,980.01
2019-03-04T21:53:48.962Z,980.58
2019-03-04T21:55:49.185Z,979.94
2019-03-04T21:57:49.190Z,980.28
2019-03-04T21:59:49.304Z,980.36
2019-03-04T22:01:49.449Z,979.97
2019-03-04T22:03:49.113Z,980.17
2019-03-04T22:05:50.557Z,980.04
2019-03-04T22:07:48.929Z,979.95
2019-03-04T22:09:48.887Z,979.93
2019-03-04T22:11:49.137Z,980.31
2019-03-04T22:13:49.175Z,980.10
2019-03-04T22:15:49.771Z,980.07
2019-03-04T22:17:48.972Z,980.09
2019-03-04T22:19:49.006Z,980.39
2019-03-04T22:21:49.388Z,980.19
2019-03-04T22:23:49.442Z,980.06
2019-03-04T22:25:49.260Z,980.17
2019-03-04T22:27:49.061Z,980.33
2019-03-04T22:29:48.933Z,980.27
2019-03-04T22:31:48.881Z,980.48
2019-03-04T22:33:49.187Z,980.03
2019-03-04T22:35:49.183Z,980.05
2019-03-04T22:37:49.215Z,980.14
2019-03-04T22:39:49.229Z,979.93
2019-03-04T22:41:49.209Z,980.10
2019-03-04T22:43:49.487Z,980.41
2019-03-04T22:45:49.281Z,980.02
2019-03-04T22:47:49.174Z,980.10
2019-03-04T22:49:48.980Z,980.41
2019-03-04T22:51:49.202Z,980.18
2019-03-04T22:53:49.310Z,980.24
2019-03-04T22:55:49.140Z,980.41
2019-03-04T22:57:49.324Z,980.13
2019-03-04T22:59:49.139Z,980.33
2019-03-04T23:01:49.360Z,980.43
2019-03-04T23:03:49.327Z,980.28
2019-03-04T23:05:49.377Z,980.41
2019-03-04T23:07:48.972Z,980.47
2019-03-04T23:09:49.124Z,980.24
2019-03-04T23:11:49.201Z,980.78
2019-03-04T23:13:49.222Z,980.79
2019-03-04T23:15:49.245Z,980.43
2019-03-04T23:17:49.340Z,980.74
2019-03-04T23:19:49.153Z,980.65
2019-03-04T23:21:49.179Z,981.00
2019-03-04T23:23:49.245Z,980.51
2019-03-04T23:25:49.385Z,980.55
2019-03-04T23:27:49.192Z,980.92
2019-03-04T23:29:49.003Z,980.72
2019-03-04T23:31:49.217Z,980.67
2019-03-04T23:33:49.131Z,981.01
2019-03-04T23:35:49.034Z,981.16
2019-03-04T23:37:49.325Z,980.84
2019-03-04T23:39:49.673Z,980.84
2019-03-04T23:41:49.210Z,981.11
2019-03-04T23:43:49.155Z,981.13
2019-03-04T23:45:49.812Z,981.24
2019-03-04T23:47:49.416Z,980.99
2019-03-04T23:49:49.017Z,980.94
2019-03-04T23:51:49.334Z,980.66
2019-03-04T23:53:49.146Z,980.73
2019-03-04T23:55:49.375Z,981.02
2019-03-04T23:57:49.340Z,980.45
2019-03-04T23:59:48.989Z,980.63
